Windsor Airport
CYQG : now visible

Airfield :











YOU CAN JOIN US ON...

 
LOGIN :

Register | Disclaimer

   EN    FR    IT 

 









Legend :    VFR   Marginal VFR   IFR   Intensive IFR   Very Intensive IFR
Visi :
Ceiling :
>= 8 km
>= 3000ft
5 to 8 km
1000 to 3000 ft
1500m to 5 km
500 to 1000 ft
800 to 1500m
200 to 500 ft
< 800m
< 200 ft
Symbols :   Thunderstorms  Fog  Heavy snow  Heavy precipitations  Wind > 20 kt







- Airport Elevation : 622 ft
- IATA code : YQG


CYQG - Windsor

CURRENT METAR :
  • 211700Z AUTO 19010KT 9SM CLR 14/09 A3006 RMK SLP184

EXPIRED METARs :
  • 211600Z AUTO 24005KT 180V260 9SM FEW022 13/07 A3005 RMK SLP180
  • 211500Z AUTO 22007KT 150V250 9SM BKN110 12/08 A3003 RMK SLP174

TAF TAF CYQG
Valid from the 21 at 18:00 until the 22 at 18:00 UTC


211742Z 2118/2218 20006KT P6SM FEW025 SCT100
BECMG 2122/2124 VRB03KT
BECMG 2212/2214 16010KT RMK FCST BASED ON AUTO OBS. NXT FCST BY 220000Z
CZYZ FIR / North America



MET'MAP, your aeronautical weather chart ! - Copyright ORBIFLY December 2007 - Disclaimer

ORBIFLY MET'MAP TEAM :

Programming & Development : Alexandra Zaïnal
Concept & Development : Baudouin d'Aumeries
Co-Development & Prog : Marc-Olivier Méhu
Technical & hardware support : Manuel Goepfert

Contact : metmap@orbifly.com




SOURCES & CREDITS :

   NOAA       Earth
Advisory